sensor_id;sensor_type;location;lat;lon;timestamp;P1;durP1;ratioP1;P2;durP2;ratioP2
79499;SDS011;76397;53.172;18.140;2024-03-02T00:00:06;72.20;;;33.70;;
79499;SDS011;76397;53.172;18.140;2024-03-02T00:03:00;74.40;;;32.50;;
79499;SDS011;76397;53.172;18.140;2024-03-02T00:05:27;74.80;;;34.10;;
79499;SDS011;76397;53.172;18.140;2024-03-02T00:07:56;76.60;;;33.40;;
79499;SDS011;76397;53.172;18.140;2024-03-02T00:10:37;87.30;;;37.00;;
79499;SDS011;76397;53.172;18.140;2024-03-02T00:13:08;82.90;;;35.60;;
79499;SDS011;76397;53.172;18.140;2024-03-02T00:15:52;78.40;;;33.60;;
79499;SDS011;76397;53.172;18.140;2024-03-02T00:18:29;70.40;;;32.70;;
79499;SDS011;76397;53.172;18.140;2024-03-02T00:20:58;70.90;;;32.90;;
79499;SDS011;76397;53.172;18.140;2024-03-02T00:23:30;78.00;;;35.10;;
79499;SDS011;76397;53.172;18.140;2024-03-02T00:25:58;78.60;;;35.20;;
79499;SDS011;76397;53.172;18.140;2024-03-02T00:28:32;80.30;;;33.90;;
79499;SDS011;76397;53.172;18.140;2024-03-02T00:31:04;79.10;;;33.80;;
79499;SDS011;76397;53.172;18.140;2024-03-02T00:33:40;77.70;;;33.90;;
79499;SDS011;76397;53.172;18.140;2024-03-02T00:36:09;73.70;;;31.50;;
79499;SDS011;76397;53.172;18.140;2024-03-02T00:38:55;72.00;;;31.90;;
79499;SDS011;76397;53.172;18.140;2024-03-02T00:44:04;74.20;;;32.40;;
79499;SDS011;76397;53.172;18.140;2024-03-02T00:46:39;70.60;;;31.60;;
79499;SDS011;76397;53.172;18.140;2024-03-02T00:51:51;70.70;;;33.00;;
79499;SDS011;76397;53.172;18.140;2024-03-02T00:54:25;72.70;;;32.60;;
79499;SDS011;76397;53.172;18.140;2024-03-02T00:56:53;78.60;;;32.90;;
79499;SDS011;76397;53.172;18.140;2024-03-02T00:59:23;70.60;;;29.00;;
79499;SDS011;76397;53.172;18.140;2024-03-02T01:01:50;68.60;;;32.20;;
79499;SDS011;76397;53.172;18.140;2024-03-02T01:04:17;68.50;;;30.60;;
79499;SDS011;76397;53.172;18.140;2024-03-02T01:06:43;69.60;;;31.80;;
79499;SDS011;76397;53.172;18.140;2024-03-02T01:09:10;68.40;;;29.20;;
79499;SDS011;76397;53.172;18.140;2024-03-02T01:11:38;63.50;;;26.80;;
79499;SDS011;76397;53.172;18.140;2024-03-02T01:14:06;69.20;;;31.50;;
79499;SDS011;76397;53.172;18.140;2024-03-02T01:16:32;71.60;;;33.10;;
79499;SDS011;76397;53.172;18.140;2024-03-02T01:18:59;68.80;;;31.50;;
79499;SDS011;76397;53.172;18.140;2024-03-02T01:21:26;62.90;;;29.40;;
79499;SDS011;76397;53.172;18.140;2024-03-02T01:23:53;63.10;;;28.90;;
79499;SDS011;76397;53.172;18.140;2024-03-02T01:26:20;68.30;;;32.20;;
79499;SDS011;76397;53.172;18.140;2024-03-02T01:28:46;63.40;;;27.50;;
79499;SDS011;76397;53.172;18.140;2024-03-02T01:31:13;63.90;;;31.30;;
79499;SDS011;76397;53.172;18.140;2024-03-02T01:33:40;63.70;;;29.20;;
79499;SDS011;76397;53.172;18.140;2024-03-02T01:36:07;61.20;;;28.20;;
79499;SDS011;76397;53.172;18.140;2024-03-02T01:38:35;64.40;;;28.40;;
79499;SDS011;76397;53.172;18.140;2024-03-02T01:41:01;65.50;;;28.50;;
79499;SDS011;76397;53.172;18.140;2024-03-02T01:43:28;38.60;;;17.70;;
79499;SDS011;76397;53.172;18.140;2024-03-02T01:45:55;65.70;;;29.50;;
79499;SDS011;76397;53.172;18.140;2024-03-02T01:48:23;68.90;;;30.50;;
79499;SDS011;76397;53.172;18.140;2024-03-02T01:50:50;55.80;;;27.20;;
79499;SDS011;76397;53.172;18.140;2024-03-02T01:53:17;59.80;;;28.30;;
79499;SDS011;76397;53.172;18.140;2024-03-02T01:55:44;58.80;;;27.50;;
79499;SDS011;76397;53.172;18.140;2024-03-02T01:58:11;57.20;;;26.20;;
79499;SDS011;76397;53.172;18.140;2024-03-02T02:00:38;59.50;;;27.70;;
79499;SDS011;76397;53.172;18.140;2024-03-02T02:03:04;53.80;;;26.00;;
79499;SDS011;76397;53.172;18.140;2024-03-02T02:05:34;59.40;;;27.70;;
79499;SDS011;76397;53.172;18.140;2024-03-02T02:08:01;62.50;;;28.20;;
79499;SDS011;76397;53.172;18.140;2024-03-02T02:10:28;58.20;;;26.70;;
79499;SDS011;76397;53.172;18.140;2024-03-02T02:12:55;60.80;;;27.20;;
79499;SDS011;76397;53.172;18.140;2024-03-02T02:15:29;59.40;;;28.30;;
79499;SDS011;76397;53.172;18.140;2024-03-02T02:17:58;53.90;;;26.00;;
79499;SDS011;76397;53.172;18.140;2024-03-02T02:20:25;50.90;;;23.60;;
79499;SDS011;76397;53.172;18.140;2024-03-02T02:23:03;51.20;;;24.10;;
79499;SDS011;76397;53.172;18.140;2024-03-02T02:25:36;55.90;;;25.10;;
79499;SDS011;76397;53.172;18.140;2024-03-02T02:28:03;55.30;;;26.20;;
79499;SDS011;76397;53.172;18.140;2024-03-02T02:30:31;57.40;;;26.40;;
79499;SDS011;76397;53.172;18.140;2024-03-02T02:32:59;54.00;;;25.30;;
79499;SDS011;76397;53.172;18.140;2024-03-02T02:35:26;50.50;;;24.80;;
79499;SDS011;76397;53.172;18.140;2024-03-02T02:37:54;49.70;;;23.00;;
79499;SDS011;76397;53.172;18.140;2024-03-02T02:40:22;50.40;;;24.30;;
79499;SDS011;76397;53.172;18.140;2024-03-02T02:42:49;50.20;;;23.30;;
79499;SDS011;76397;53.172;18.140;2024-03-02T02:45:18;61.20;;;25.90;;
79499;SDS011;76397;53.172;18.140;2024-03-02T02:47:45;52.70;;;25.10;;
79499;SDS011;76397;53.172;18.140;2024-03-02T02:50:12;51.70;;;24.50;;
79499;SDS011;76397;53.172;18.140;2024-03-02T02:52:40;46.00;;;21.90;;
79499;SDS011;76397;53.172;18.140;2024-03-02T02:55:10;50.20;;;23.60;;
79499;SDS011;76397;53.172;18.140;2024-03-02T02:57:39;45.40;;;21.90;;
79499;SDS011;76397;53.172;18.140;2024-03-02T03:00:10;47.50;;;22.30;;
79499;SDS011;76397;53.172;18.140;2024-03-02T03:02:43;48.60;;;23.30;;
79499;SDS011;76397;53.172;18.140;2024-03-02T03:05:14;52.40;;;24.60;;
79499;SDS011;76397;53.172;18.140;2024-03-02T03:07:42;51.40;;;24.20;;
79499;SDS011;76397;53.172;18.140;2024-03-02T03:10:11;51.10;;;23.30;;
79499;SDS011;76397;53.172;18.140;2024-03-02T03:12:38;45.00;;;21.80;;
79499;SDS011;76397;53.172;18.140;2024-03-02T03:15:05;49.40;;;22.80;;
79499;SDS011;76397;53.172;18.140;2024-03-02T03:17:33;41.40;;;20.10;;
79499;SDS011;76397;53.172;18.140;2024-03-02T03:20:02;39.70;;;19.70;;
79499;SDS011;76397;53.172;18.140;2024-03-02T03:22:30;47.30;;;22.10;;
79499;SDS011;76397;53.172;18.140;2024-03-02T03:25:02;53.30;;;24.30;;
79499;SDS011;76397;53.172;18.140;2024-03-02T03:27:30;50.40;;;23.50;;
79499;SDS011;76397;53.172;18.140;2024-03-02T03:29:56;43.50;;;23.50;;
79499;SDS011;76397;53.172;18.140;2024-03-02T03:32:23;43.60;;;21.70;;
79499;SDS011;76397;53.172;18.140;2024-03-02T03:34:50;40.20;;;21.30;;
79499;SDS011;76397;53.172;18.140;2024-03-02T03:37:17;39.40;;;20.90;;
79499;SDS011;76397;53.172;18.140;2024-03-02T03:39:44;39.90;;;19.90;;
79499;SDS011;76397;53.172;18.140;2024-03-02T03:42:11;42.40;;;21.10;;
79499;SDS011;76397;53.172;18.140;2024-03-02T03:44:37;46.30;;;22.60;;
79499;SDS011;76397;53.172;18.140;2024-03-02T03:47:06;38.40;;;21.00;;
79499;SDS011;76397;53.172;18.140;2024-03-02T03:49:33;44.10;;;22.00;;
79499;SDS011;76397;53.172;18.140;2024-03-02T03:51:59;43.60;;;20.40;;
79499;SDS011;76397;53.172;18.140;2024-03-02T03:54:26;38.60;;;19.60;;
79499;SDS011;76397;53.172;18.140;2024-03-02T03:56:53;38.30;;;18.80;;
79499;SDS011;76397;53.172;18.140;2024-03-02T03:59:20;41.30;;;19.60;;
79499;SDS011;76397;53.172;18.140;2024-03-02T04:01:47;34.80;;;18.60;;
79499;SDS011;76397;53.172;18.140;2024-03-02T04:04:13;38.70;;;19.80;;
79499;SDS011;76397;53.172;18.140;2024-03-02T04:06:41;39.00;;;20.60;;
79499;SDS011;76397;53.172;18.140;2024-03-02T04:09:07;36.60;;;18.70;;
79499;SDS011;76397;53.172;18.140;2024-03-02T04:11:34;38.90;;;19.00;;
79499;SDS011;76397;53.172;18.140;2024-03-02T04:14:01;36.70;;;18.70;;
79499;SDS011;76397;53.172;18.140;2024-03-02T04:16:28;33.90;;;18.70;;
79499;SDS011;76397;53.172;18.140;2024-03-02T04:18:55;35.40;;;18.20;;
79499;SDS011;76397;53.172;18.140;2024-03-02T04:21:22;34.10;;;19.60;;
79499;SDS011;76397;53.172;18.140;2024-03-02T04:23:48;36.20;;;19.90;;
79499;SDS011;76397;53.172;18.140;2024-03-02T04:26:15;39.20;;;20.80;;
79499;SDS011;76397;53.172;18.140;2024-03-02T04:28:46;38.50;;;20.10;;
79499;SDS011;76397;53.172;18.140;2024-03-02T04:31:15;41.00;;;20.70;;
79499;SDS011;76397;53.172;18.140;2024-03-02T04:33:43;36.40;;;18.00;;
79499;SDS011;76397;53.172;18.140;2024-03-02T04:36:09;36.70;;;18.70;;
79499;SDS011;76397;53.172;18.140;2024-03-02T04:38:37;30.20;;;13.60;;
79499;SDS011;76397;53.172;18.140;2024-03-02T04:41:05;34.10;;;18.30;;
79499;SDS011;76397;53.172;18.140;2024-03-02T04:43:33;32.90;;;18.90;;
79499;SDS011;76397;53.172;18.140;2024-03-02T04:46:00;36.20;;;17.90;;
79499;SDS011;76397;53.172;18.140;2024-03-02T04:48:27;41.40;;;21.50;;
79499;SDS011;76397;53.172;18.140;2024-03-02T04:50:54;41.50;;;21.00;;
79499;SDS011;76397;53.172;18.140;2024-03-02T04:53:21;36.50;;;18.70;;
79499;SDS011;76397;53.172;18.140;2024-03-02T04:55:48;37.30;;;20.00;;
79499;SDS011;76397;53.172;18.140;2024-03-02T04:58:20;37.90;;;19.00;;
79499;SDS011;76397;53.172;18.140;2024-03-02T05:00:47;38.20;;;18.50;;
79499;SDS011;76397;53.172;18.140;2024-03-02T05:03:14;38.80;;;20.90;;
79499;SDS011;76397;53.172;18.140;2024-03-02T05:05:41;39.20;;;20.50;;
79499;SDS011;76397;53.172;18.140;2024-03-02T05:08:07;41.40;;;21.10;;
79499;SDS011;76397;53.172;18.140;2024-03-02T05:10:34;40.20;;;21.00;;
79499;SDS011;76397;53.172;18.140;2024-03-02T05:13:03;41.70;;;20.40;;
79499;SDS011;76397;53.172;18.140;2024-03-02T05:15:30;35.40;;;18.60;;
79499;SDS011;76397;53.172;18.140;2024-03-02T05:17:56;36.00;;;19.20;;
79499;SDS011;76397;53.172;18.140;2024-03-02T05:20:24;33.00;;;18.20;;
79499;SDS011;76397;53.172;18.140;2024-03-02T05:22:51;39.80;;;20.00;;
79499;SDS011;76397;53.172;18.140;2024-03-02T05:25:17;39.50;;;20.90;;
79499;SDS011;76397;53.172;18.140;2024-03-02T05:27:45;39.20;;;20.60;;
79499;SDS011;76397;53.172;18.140;2024-03-02T05:30:13;38.30;;;20.50;;
79499;SDS011;76397;53.172;18.140;2024-03-02T05:32:40;38.60;;;19.40;;
79499;SDS011;76397;53.172;18.140;2024-03-02T05:35:07;37.00;;;19.80;;
79499;SDS011;76397;53.172;18.140;2024-03-02T05:37:35;36.30;;;18.90;;
79499;SDS011;76397;53.172;18.140;2024-03-02T05:40:02;34.40;;;19.40;;
79499;SDS011;76397;53.172;18.140;2024-03-02T05:42:29;36.10;;;18.50;;
79499;SDS011;76397;53.172;18.140;2024-03-02T05:44:56;36.90;;;19.70;;
79499;SDS011;76397;53.172;18.140;2024-03-02T05:47:22;40.20;;;20.70;;
79499;SDS011;76397;53.172;18.140;2024-03-02T05:49:49;39.30;;;21.00;;
79499;SDS011;76397;53.172;18.140;2024-03-02T05:52:16;39.20;;;20.10;;
79499;SDS011;76397;53.172;18.140;2024-03-02T05:54:43;37.00;;;19.40;;
79499;SDS011;76397;53.172;18.140;2024-03-02T05:57:10;35.00;;;18.90;;
79499;SDS011;76397;53.172;18.140;2024-03-02T05:59:48;36.60;;;19.10;;
79499;SDS011;76397;53.172;18.140;2024-03-02T06:02:15;38.50;;;20.30;;
79499;SDS011;76397;53.172;18.140;2024-03-02T06:04:42;38.90;;;18.80;;
79499;SDS011;76397;53.172;18.140;2024-03-02T06:07:09;34.20;;;18.50;;
79499;SDS011;76397;53.172;18.140;2024-03-02T06:09:35;38.00;;;21.80;;
79499;SDS011;76397;53.172;18.140;2024-03-02T06:12:03;37.90;;;20.00;;
79499;SDS011;76397;53.172;18.140;2024-03-02T06:14:30;39.20;;;19.10;;
79499;SDS011;76397;53.172;18.140;2024-03-02T06:16:57;35.50;;;19.20;;
79499;SDS011;76397;53.172;18.140;2024-03-02T06:19:26;36.00;;;18.90;;
79499;SDS011;76397;53.172;18.140;2024-03-02T06:21:53;37.20;;;20.20;;
79499;SDS011;76397;53.172;18.140;2024-03-02T06:24:20;41.40;;;21.20;;
79499;SDS011;76397;53.172;18.140;2024-03-02T06:26:47;39.00;;;20.60;;
79499;SDS011;76397;53.172;18.140;2024-03-02T06:29:13;36.50;;;19.70;;
79499;SDS011;76397;53.172;18.140;2024-03-02T06:31:40;43.80;;;19.40;;
79499;SDS011;76397;53.172;18.140;2024-03-02T06:41:33;37.70;;;19.20;;
79499;SDS011;76397;53.172;18.140;2024-03-02T06:44:00;36.30;;;20.70;;
79499;SDS011;76397;53.172;18.140;2024-03-02T06:46:27;37.50;;;19.90;;
79499;SDS011;76397;53.172;18.140;2024-03-02T06:48:54;37.00;;;18.80;;
79499;SDS011;76397;53.172;18.140;2024-03-02T06:51:20;37.10;;;19.60;;
79499;SDS011;76397;53.172;18.140;2024-03-02T06:53:47;38.40;;;20.00;;
79499;SDS011;76397;53.172;18.140;2024-03-02T06:56:14;34.70;;;19.00;;
79499;SDS011;76397;53.172;18.140;2024-03-02T06:58:41;34.70;;;19.00;;
79499;SDS011;76397;53.172;18.140;2024-03-02T07:01:09;36.50;;;19.40;;
79499;SDS011;76397;53.172;18.140;2024-03-02T07:03:36;38.10;;;20.10;;
79499;SDS011;76397;53.172;18.140;2024-03-02T07:06:05;40.50;;;20.20;;
79499;SDS011;76397;53.172;18.140;2024-03-02T07:08:33;38.20;;;19.70;;
79499;SDS011;76397;53.172;18.140;2024-03-02T07:11:00;34.90;;;18.60;;
79499;SDS011;76397;53.172;18.140;2024-03-02T07:13:27;36.50;;;18.90;;
79499;SDS011;76397;53.172;18.140;2024-03-02T07:15:54;35.60;;;18.60;;
79499;SDS011;76397;53.172;18.140;2024-03-02T07:18:30;34.30;;;17.70;;
79499;SDS011;76397;53.172;18.140;2024-03-02T07:20:57;37.50;;;19.40;;
79499;SDS011;76397;53.172;18.140;2024-03-02T07:23:28;37.70;;;20.00;;
79499;SDS011;76397;53.172;18.140;2024-03-02T07:25:58;39.20;;;19.30;;
79499;SDS011;76397;53.172;18.140;2024-03-02T07:28:26;33.50;;;17.40;;
79499;SDS011;76397;53.172;18.140;2024-03-02T07:31:00;35.30;;;19.00;;
79499;SDS011;76397;53.172;18.140;2024-03-02T07:33:28;38.60;;;19.50;;
79499;SDS011;76397;53.172;18.140;2024-03-02T07:35:55;37.30;;;19.60;;
79499;SDS011;76397;53.172;18.140;2024-03-02T07:38:23;36.80;;;20.50;;
79499;SDS011;76397;53.172;18.140;2024-03-02T07:40:50;36.10;;;19.40;;
79499;SDS011;76397;53.172;18.140;2024-03-02T07:43:17;36.20;;;19.40;;
79499;SDS011;76397;53.172;18.140;2024-03-02T07:45:46;35.20;;;19.00;;
79499;SDS011;76397;53.172;18.140;2024-03-02T07:48:14;34.70;;;19.20;;
79499;SDS011;76397;53.172;18.140;2024-03-02T07:50:41;36.10;;;20.00;;
79499;SDS011;76397;53.172;18.140;2024-03-02T07:53:09;36.80;;;20.20;;
79499;SDS011;76397;53.172;18.140;2024-03-02T07:55:36;34.80;;;18.80;;
79499;SDS011;76397;53.172;18.140;2024-03-02T07:58:03;35.90;;;21.40;;
79499;SDS011;76397;53.172;18.140;2024-03-02T08:00:31;34.00;;;20.90;;
79499;SDS011;76397;53.172;18.140;2024-03-02T08:02:57;32.70;;;20.30;;
79499;SDS011;76397;53.172;18.140;2024-03-02T08:05:25;34.40;;;20.20;;
79499;SDS011;76397;53.172;18.140;2024-03-02T08:07:53;32.80;;;21.10;;
79499;SDS011;76397;53.172;18.140;2024-03-02T08:10:21;33.80;;;21.50;;
79499;SDS011;76397;53.172;18.140;2024-03-02T08:12:48;30.70;;;20.60;;
79499;SDS011;76397;53.172;18.140;2024-03-02T08:15:14;30.50;;;20.30;;
79499;SDS011;76397;53.172;18.140;2024-03-02T08:17:41;30.30;;;20.10;;
79499;SDS011;76397;53.172;18.140;2024-03-02T08:20:15;30.70;;;20.40;;
79499;SDS011;76397;53.172;18.140;2024-03-02T08:22:42;31.90;;;20.30;;
79499;SDS011;76397;53.172;18.140;2024-03-02T08:25:11;28.80;;;20.00;;
79499;SDS011;76397;53.172;18.140;2024-03-02T08:27:40;30.20;;;20.00;;
79499;SDS011;76397;53.172;18.140;2024-03-02T08:30:07;30.80;;;19.50;;
79499;SDS011;76397;53.172;18.140;2024-03-02T08:32:37;32.50;;;21.10;;
79499;SDS011;76397;53.172;18.140;2024-03-02T08:35:04;32.40;;;19.60;;
79499;SDS011;76397;53.172;18.140;2024-03-02T08:37:32;31.90;;;19.80;;
79499;SDS011;76397;53.172;18.140;2024-03-02T08:39:58;29.70;;;19.60;;
79499;SDS011;76397;53.172;18.140;2024-03-02T08:42:25;30.20;;;20.30;;
79499;SDS011;76397;53.172;18.140;2024-03-02T08:44:53;28.10;;;19.30;;
79499;SDS011;76397;53.172;18.140;2024-03-02T08:47:19;29.40;;;18.50;;
79499;SDS011;76397;53.172;18.140;2024-03-02T08:49:46;26.20;;;19.00;;
79499;SDS011;76397;53.172;18.140;2024-03-02T08:52:13;28.90;;;19.70;;
79499;SDS011;76397;53.172;18.140;2024-03-02T08:54:40;28.70;;;18.70;;
79499;SDS011;76397;53.172;18.140;2024-03-02T08:57:07;26.90;;;19.00;;
79499;SDS011;76397;53.172;18.140;2024-03-02T08:59:33;28.20;;;19.90;;
79499;SDS011;76397;53.172;18.140;2024-03-02T09:02:00;27.50;;;19.20;;
79499;SDS011;76397;53.172;18.140;2024-03-02T09:04:28;32.50;;;20.00;;
79499;SDS011;76397;53.172;18.140;2024-03-02T09:06:55;30.70;;;20.00;;
79499;SDS011;76397;53.172;18.140;2024-03-02T09:09:22;28.60;;;18.70;;
79499;SDS011;76397;53.172;18.140;2024-03-02T09:11:49;31.00;;;19.90;;
79499;SDS011;76397;53.172;18.140;2024-03-02T09:14:16;28.30;;;19.20;;
79499;SDS011;76397;53.172;18.140;2024-03-02T09:16:43;29.60;;;18.90;;
79499;SDS011;76397;53.172;18.140;2024-03-02T09:19:10;30.60;;;19.90;;
79499;SDS011;76397;53.172;18.140;2024-03-02T09:21:37;29.20;;;19.20;;
79499;SDS011;76397;53.172;18.140;2024-03-02T09:24:04;30.30;;;20.80;;
79499;SDS011;76397;53.172;18.140;2024-03-02T09:26:33;29.50;;;19.80;;
79499;SDS011;76397;53.172;18.140;2024-03-02T09:29:00;29.80;;;19.70;;
79499;SDS011;76397;53.172;18.140;2024-03-02T09:31:26;30.70;;;20.00;;
79499;SDS011;76397;53.172;18.140;2024-03-02T09:33:53;33.40;;;19.20;;
79499;SDS011;76397;53.172;18.140;2024-03-02T09:36:21;30.60;;;20.10;;
79499;SDS011;76397;53.172;18.140;2024-03-02T09:38:48;30.90;;;19.70;;
79499;SDS011;76397;53.172;18.140;2024-03-02T09:41:16;30.10;;;20.60;;
79499;SDS011;76397;53.172;18.140;2024-03-02T09:43:43;32.10;;;20.70;;
79499;SDS011;76397;53.172;18.140;2024-03-02T09:46:10;30.80;;;20.50;;
79499;SDS011;76397;53.172;18.140;2024-03-02T09:48:38;29.90;;;18.50;;
79499;SDS011;76397;53.172;18.140;2024-03-02T09:51:05;30.70;;;19.10;;
79499;SDS011;76397;53.172;18.140;2024-03-02T09:53:33;28.70;;;18.90;;
79499;SDS011;76397;53.172;18.140;2024-03-02T09:56:00;29.50;;;20.10;;
79499;SDS011;76397;53.172;18.140;2024-03-02T09:58:28;28.70;;;19.00;;
79499;SDS011;76397;53.172;18.140;2024-03-02T10:00:55;31.00;;;19.20;;
79499;SDS011;76397;53.172;18.140;2024-03-02T10:03:23;31.00;;;19.70;;
79499;SDS011;76397;53.172;18.140;2024-03-02T10:05:54;34.70;;;20.20;;
79499;SDS011;76397;53.172;18.140;2024-03-02T10:08:20;32.40;;;19.30;;
79499;SDS011;76397;53.172;18.140;2024-03-02T10:10:47;28.50;;;18.10;;
79499;SDS011;76397;53.172;18.140;2024-03-02T10:13:14;31.70;;;18.60;;
79499;SDS011;76397;53.172;18.140;2024-03-02T10:15:41;25.90;;;18.10;;
79499;SDS011;76397;53.172;18.140;2024-03-02T10:18:12;29.20;;;18.30;;
79499;SDS011;76397;53.172;18.140;2024-03-02T10:20:40;32.90;;;19.00;;
79499;SDS011;76397;53.172;18.140;2024-03-02T10:23:15;31.20;;;19.10;;
79499;SDS011;76397;53.172;18.140;2024-03-02T10:25:43;32.80;;;18.60;;
79499;SDS011;76397;53.172;18.140;2024-03-02T10:28:11;29.70;;;19.80;;
79499;SDS011;76397;53.172;18.140;2024-03-02T10:30:38;32.40;;;22.50;;
79499;SDS011;76397;53.172;18.140;2024-03-02T10:33:05;27.90;;;17.80;;
79499;SDS011;76397;53.172;18.140;2024-03-02T10:35:33;27.80;;;17.70;;
79499;SDS011;76397;53.172;18.140;2024-03-02T10:38:04;27.90;;;18.40;;
79499;SDS011;76397;53.172;18.140;2024-03-02T10:40:32;28.10;;;17.90;;
79499;SDS011;76397;53.172;18.140;2024-03-02T10:43:01;27.40;;;16.50;;
79499;SDS011;76397;53.172;18.140;2024-03-02T10:45:30;28.00;;;17.60;;
79499;SDS011;76397;53.172;18.140;2024-03-02T10:47:57;25.60;;;17.00;;
79499;SDS011;76397;53.172;18.140;2024-03-02T10:50:24;32.60;;;21.40;;
79499;SDS011;76397;53.172;18.140;2024-03-02T10:52:51;29.00;;;19.30;;
79499;SDS011;76397;53.172;18.140;2024-03-02T10:55:18;28.60;;;19.10;;
79499;SDS011;76397;53.172;18.140;2024-03-02T10:57:51;32.30;;;20.40;;
79499;SDS011;76397;53.172;18.140;2024-03-02T11:00:20;29.40;;;18.00;;
